Lyme Center, New Hampshire
Current Conditions -  °F | °C
As of 9:53 PM on Saturday 20 Dec 2014 (Local Time) from KLEB Reporting Station
Overcast Overcast  
Wind Chill: 24°   Ceiling: 2900
Heat Index: 24°   Visibility: 10mi
Dew Point: 19°   Wind: 0mph
Humidity: 81%   Direction: NA
Pressure: 30.3"   Gusts: NA
Location:  43.8°N, 72.12°W
Report Text: KLEB 210253Z 00000KT 10SM OVC029 M04/M07 A3030 RMK AO2 SLP273 I3000 T10441072 51004
Loading
Personal Weather Stations






























Interactive Weather Map New forecast layout! Learn more

10-Day Weather Forecast

Advertisements
Track Severe Weather on mobile